Time;durP1;ratioP1;P1;durP2;ratioP2;P2;SDS_P1;SDS_P2;PMS_P1;PMS_P2;Temp;Humidity;BMP_temperature;BMP_pressure;BME280_temperature;BME280_humidity;BME280_pressure;Samples;Min_cycle;Max_cycle;Signal;HPM_P1;HPM_P2
2021/04/12 00:01:45;;;;;;;4.35;3.17;;;;;;;4.90;67.06;100829.88;5092121;28;20055;-63
2021/04/12 00:04:19;;;;;;;5.32;2.42;;;;;;;4.88;67.02;100832.91;5092164;28;20052;-63
2021/04/12 00:06:52;;;;;;;4.75;2.88;;;;;;;4.86;66.95;100835.09;5092682;28;20401;-64
2021/04/12 00:09:26;;;;;;;6.03;2.45;;;;;;;4.79;66.64;100841.97;5092333;28;20070;-63
2021/04/12 00:11:56;;;;;;;4.13;2.53;;;;;;;4.77;67.13;100844.16;5092235;28;20110;-63
2021/04/12 00:14:28;;;;;;;4.43;2.78;;;;;;;4.70;67.59;100843.56;5092884;28;20056;-63
2021/04/12 00:17:03;;;;;;;4.15;2.67;;;;;;;4.63;67.60;100841.84;5091936;28;20052;-64
2021/04/12 00:19:45;;;;;;;4.05;2.75;;;;;;;4.64;67.08;100845.44;5092076;28;20052;-63
2021/04/12 00:22:18;;;;;;;5.10;2.50;;;;;;;4.62;67.19;100842.97;5091433;28;20060;-63
2021/04/12 00:24:51;;;;;;;5.57;2.70;;;;;;;4.61;67.38;100848.75;5092049;28;20056;-63
2021/04/12 00:27:21;;;;;;;4.88;2.65;;;;;;;4.58;67.15;100855.63;5091991;28;20055;-63
2021/04/12 00:29:56;;;;;;;7.03;3.05;;;;;;;4.55;67.21;100849.81;5092180;28;20082;-63
2021/04/12 00:32:28;;;;;;;4.18;2.70;;;;;;;4.50;67.85;100847.84;5091966;28;20048;-63
2021/04/12 00:35:01;;;;;;;4.28;2.58;;;;;;;4.48;67.63;100853.63;5092074;28;20648;-63
2021/04/12 00:37:37;;;;;;;4.68;2.92;;;;;;;4.44;67.63;100851.66;5092078;28;20048;-63
2021/04/12 00:40:17;;;;;;;8.40;3.00;;;;;;;4.44;67.80;100848.91;5092331;28;20052;-63
2021/04/12 00:43:10;;;;;;;9.52;3.42;;;;;;;4.38;67.51;100848.00;5092648;28;20056;-63
2021/04/12 00:46:16;;;;;;;5.05;2.53;;;;;;;4.37;67.08;100856.56;5095492;28;20058;-63
2021/04/12 00:48:57;;;;;;;6.32;2.95;;;;;;;4.27;67.56;100854.56;5094882;28;20044;-63
2021/04/12 00:51:36;;;;;;;5.35;2.85;;;;;;;4.24;68.00;100858.69;5095482;28;20056;-63
2021/04/12 00:54:51;;;;;;;5.10;3.00;;;;;;;4.18;67.57;100859.72;5096108;28;20063;-63
2021/04/12 00:57:42;;;;;;;4.18;2.60;;;;;;;4.16;68.22;100859.16;5080685;28;20055;-63
2021/04/12 01:00:15;;;;;;;5.88;3.05;;;;;;;4.15;68.05;100863.00;5096005;28;20067;-63
2021/04/12 01:02:53;;;;;;;5.85;3.20;;;;;;;4.11;68.26;100869.28;5095702;28;20059;-63
2021/04/12 01:05:31;;;;;;;4.95;3.08;;;;;;;4.10;68.78;100860.19;5093947;28;20051;-63
2021/04/12 01:08:37;;;;;;;6.28;2.92;;;;;;;4.06;68.56;100868.16;5075124;28;20053;-63
2021/04/12 01:11:48;;;;;;;6.15;2.92;;;;;;;4.04;68.69;100864.81;5064529;28;20489;-63
2021/04/12 01:14:41;;;;;;;6.05;3.20;;;;;;;3.99;69.29;100872.19;5074958;28;20056;-63
2021/04/12 01:17:32;;;;;;;4.05;2.70;;;;;;;4.02;68.50;100874.44;5075553;28;20048;-63
2021/04/12 01:20:44;;;;;;;4.78;2.90;;;;;;;3.99;68.24;100881.31;5075605;28;20048;-63
2021/04/12 01:23:48;;;;;;;5.78;3.17;;;;;;;3.95;68.38;100882.06;5075201;28;20485;-63
2021/04/12 01:26:52;;;;;;;3.78;2.72;;;;;;;3.90;67.82;100891.13;5074992;28;20060;-63
2021/04/12 01:30:10;;;;;;;8.25;2.67;;;;;;;3.85;68.55;100902.94;5074785;28;20048;-63
2021/04/12 01:33:13;;;;;;;4.43;2.63;;;;;;;3.80;68.70;100902.91;5084423;28;20051;-63
2021/04/12 01:38:37;;;;;;;5.68;2.90;;;;;;;3.76;68.99;100901.75;5090540;27;20524;-63
2021/04/12 01:41:28;;;;;;;6.38;2.70;;;;;;;3.77;68.65;100889.63;5089976;28;20385;-63
2021/04/12 01:44:16;;;;;;;4.97;2.85;;;;;;;3.75;68.83;100902.81;5086715;28;20052;-63
2021/04/12 01:46:51;;;;;;;5.53;2.40;;;;;;;3.74;68.13;100911.34;5090361;28;20067;-63
2021/04/12 01:49:26;;;;;;;7.40;2.90;;;;;;;3.73;68.46;100915.19;5089895;28;20052;-63
2021/04/12 01:52:18;;;;;;;4.13;2.83;;;;;;;3.73;69.02;100926.22;5090015;28;20052;-63
2021/04/12 01:54:58;;;;;;;6.65;3.00;;;;;;;3.71;68.49;100925.66;5089978;28;20485;-63
2021/04/12 01:57:41;;;;;;;5.93;3.33;;;;;;;3.69;69.06;100931.41;5076825;28;20052;-63
2021/04/12 02:00:59;;;;;;;5.72;2.88;;;;;;;3.66;69.17;100934.69;5089866;28;20056;-65
2021/04/12 02:03:38;;;;;;;4.93;3.15;;;;;;;3.63;69.42;100936.03;5089853;28;20063;-63
2021/04/12 02:06:31;;;;;;;6.10;3.10;;;;;;;3.57;69.89;100933.44;5081450;28;20522;-63
2021/04/12 02:09:10;;;;;;;6.30;2.92;;;;;;;3.58;69.60;100935.13;5069678;28;20401;-63
2021/04/12 02:11:49;;;;;;;7.15;2.75;;;;;;;3.56;69.30;100943.66;5071253;28;20063;-63
2021/04/12 02:14:40;;;;;;;8.00;3.43;;;;;;;3.52;69.55;100948.00;5089566;28;20052;-63
2021/04/12 02:17:13;;;;;;;6.05;3.80;;;;;;;3.48;70.25;100957.03;5089266;28;20044;-64
2021/04/12 02:19:59;;;;;;;5.10;3.58;;;;;;;3.47;70.00;100961.72;5086329;28;20044;-63
2021/04/12 02:23:03;;;;;;;7.15;3.60;;;;;;;3.43;70.40;100960.56;5069547;28;20071;-63
2021/04/12 02:25:53;;;;;;;6.15;3.30;;;;;;;3.41;70.01;100965.47;5068818;28;20386;-63
2021/04/12 02:28:50;;;;;;;6.95;3.35;;;;;;;3.36;70.37;100948.88;5069225;28;20045;-63
2021/04/12 02:31:42;;;;;;;6.40;3.80;;;;;;;3.36;70.26;100955.25;5068827;28;20052;-63
2021/04/12 02:34:20;;;;;;;8.48;3.97;;;;;;;3.33;70.26;100960.41;5049466;28;20504;-62
2021/04/12 02:37:03;;;;;;;5.57;4.30;;;;;;;3.31;70.25;100962.59;5048410;28;20049;-63
2021/04/12 02:39:41;;;;;;;8.02;4.28;;;;;;;3.22;69.30;100965.78;5048995;28;20144;-63
2021/04/12 02:42:18;;;;;;;8.10;4.97;;;;;;;3.19;70.29;100974.56;5048770;28;20057;-63
2021/04/12 02:45:06;;;;;;;7.43;3.97;;;;;;;3.18;69.88;100975.63;5048587;28;20490;-63
2021/04/12 02:48:08;;;;;;;7.97;4.50;;;;;;;3.16;69.79;100972.28;5049746;28;20049;-63
2021/04/12 02:50:54;;;;;;;7.93;4.38;;;;;;;3.13;70.01;100983.81;5035599;28;20064;-63
2021/04/12 02:53:41;;;;;;;7.07;4.18;;;;;;;3.10;70.19;100978.81;5035607;28;20054;-63
2021/04/12 02:56:32;;;;;;;9.45;4.93;;;;;;;3.09;70.01;100979.91;5035640;28;20418;-63
2021/04/12 02:59:31;;;;;;;7.85;5.25;;;;;;;3.05;70.17;100978.72;5036233;28;20491;-63
2021/04/12 03:02:43;;;;;;;9.13;4.78;;;;;;;3.03;70.61;100986.41;5018680;28;20049;-63
2021/04/12 03:05:34;;;;;;;8.35;5.35;;;;;;;3.02;70.19;100982.84;5035640;28;20049;-64
2021/04/12 03:08:25;;;;;;;12.75;5.68;;;;;;;3.00;70.58;100979.50;5055235;28;20049;-64
2021/04/12 03:11:04;;;;;;;8.68;5.45;;;;;;;3.00;70.84;100987.75;5045065;28;20056;-63
2021/04/12 03:14:10;;;;;;;8.13;5.00;;;;;;;2.99;71.14;100988.81;5035211;28;20053;-64
2021/04/12 03:17:02;;;;;;;8.70;4.97;;;;;;;2.93;71.32;100986.25;5035251;28;20056;-64
2021/04/12 03:19:53;;;;;;;10.90;5.43;;;;;;;2.95;71.04;100986.81;5034873;28;20080;-63
2021/04/12 03:22:59;;;;;;;8.80;5.20;;;;;;;2.94;70.50;100990.66;5035100;28;20049;-64
2021/04/12 03:25:40;;;;;;;8.57;5.68;;;;;;;2.93;71.40;100991.75;5035510;28;20049;-64
2021/04/12 03:28:23;;;;;;;11.02;6.07;;;;;;;2.91;71.28;100988.41;5035138;28;20054;-64
2021/04/12 03:31:04;;;;;;;9.57;5.78;;;;;;;2.88;71.02;100984.25;5034836;28;20491;-64
2021/04/12 03:33:38;;;;;;;7.95;5.45;;;;;;;2.91;71.33;100986.50;5034496;28;20050;-64
2021/04/12 03:36:24;;;;;;;9.63;5.85;;;;;;;2.93;71.51;100989.81;5034326;28;20049;-64
2021/04/12 03:39:04;;;;;;;8.82;5.88;;;;;;;2.95;71.28;100987.66;5034948;28;20050;-64
2021/04/12 03:42:04;;;;;;;9.15;6.18;;;;;;;2.96;71.55;100986.59;5034365;28;20372;-63
2021/04/12 03:44:55;;;;;;;15.18;7.03;;;;;;;2.95;71.81;100984.06;5034416;28;20064;-63
2021/04/12 03:48:03;;;;;;;10.63;6.20;;;;;;;2.96;71.08;100977.47;5034622;28;20061;-65
2021/04/12 03:50:51;;;;;;;8.50;5.72;;;;;;;2.99;70.81;100983.31;5034724;28;20058;-64
2021/04/12 03:53:34;;;;;;;9.80;5.95;;;;;;;3.00;71.39;100989.66;5034582;28;20061;-64
2021/04/12 03:56:22;;;;;;;9.43;6.20;;;;;;;2.96;70.78;100989.34;5034535;28;20049;-64
2021/04/12 03:59:15;;;;;;;9.15;5.72;;;;;;;2.95;71.11;101003.34;5034034;28;20056;-64
2021/04/12 04:02:11;;;;;;;13.27;7.05;;;;;;;2.94;71.05;101008.00;5033629;28;20060;-64
2021/04/12 04:04:52;;;;;;;10.80;6.75;;;;;;;2.93;71.04;101006.34;5034344;28;20053;-64
2021/04/12 04:07:30;;;;;;;15.80;6.68;;;;;;;2.90;71.14;101006.00;5052416;28;20371;-63
2021/04/12 04:10:25;;;;;;;10.30;7.22;;;;;;;2.91;71.11;101004.91;5053828;28;20060;-63
2021/04/12 04:13:07;;;;;;;10.73;6.78;;;;;;;2.91;70.99;101010.41;5053726;28;20057;-63
2021/04/12 04:15:52;;;;;;;12.13;7.13;;;;;;;2.90;71.05;101009.59;5053162;28;20056;-63
2021/04/12 04:18:28;;;;;;;12.65;7.18;;;;;;;2.89;70.90;101012.59;5053890;28;20049;-63
2021/04/12 04:21:31;;;;;;;12.85;7.80;;;;;;;2.85;71.53;101012.25;5053681;28;20410;-63
2021/04/12 04:24:24;;;;;;;16.02;8.68;;;;;;;2.79;71.45;101016.84;5048358;28;20402;-63
2021/04/12 04:27:19;;;;;;;14.02;8.38;;;;;;;2.77;71.28;101019.03;5034126;28;20060;-64
2021/04/12 04:30:25;;;;;;;12.80;8.38;;;;;;;2.76;71.99;101020.09;5025182;28;20057;-64
2021/04/12 04:33:04;;;;;;;11.38;8.10;;;;;;;2.73;71.16;101026.09;5033575;28;20060;-64
2021/04/12 04:35:52;;;;;;;12.13;8.40;;;;;;;2.71;71.06;101028.25;5033328;28;20487;-64
2021/04/12 04:38:54;;;;;;;14.88;9.52;;;;;;;2.71;71.87;101031.00;5033368;28;20049;-64
2021/04/12 04:41:38;;;;;;;11.65;8.77;;;;;;;2.72;71.37;101037.34;5034176;28;20053;-64
2021/04/12 04:44:34;;;;;;;16.27;9.70;;;;;;;2.69;71.45;101035.06;5033117;28;20073;-64
2021/04/12 04:47:31;;;;;;;11.25;8.85;;;;;;;2.66;71.61;101039.16;5032965;28;20053;-64
2021/04/12 04:50:22;;;;;;;14.43;9.75;;;;;;;2.60;71.25;101045.66;5033295;28;20072;-63
2021/04/12 04:53:04;;;;;;;15.23;10.10;;;;;;;2.57;72.12;101046.97;5033126;28;20064;-63
2021/04/12 04:55:45;;;;;;;15.43;10.10;;;;;;;2.54;71.93;101060.38;5033099;28;20061;-63
2021/04/12 04:58:23;;;;;;;16.98;9.77;;;;;;;2.51;71.42;101064.47;5053301;28;20072;-63
2021/04/12 05:01:20;;;;;;;14.98;11.00;;;;;;;2.50;71.48;101061.94;5040571;28;20049;-63
2021/04/12 05:04:06;;;;;;;17.95;10.25;;;;;;;2.54;71.24;101071.38;5032792;28;20065;-64
2021/04/12 05:07:24;;;;;;;14.90;10.80;;;;;;;2.55;71.34;101073.06;5044887;28;20053;-63
2021/04/12 05:10:16;;;;;;;18.58;12.10;;;;;;;2.60;72.21;101085.00;5052314;28;20049;-63
2021/04/12 05:13:08;;;;;;;17.27;11.40;;;;;;;2.73;71.98;101080.25;5049937;28;20064;-64
2021/04/12 05:16:05;;;;;;;18.35;12.15;;;;;;;2.78;71.38;101092.19;5052454;28;20062;-64
2021/04/12 05:19:03;;;;;;;15.48;10.55;;;;;;;2.81;71.78;101094.47;5017589;28;20056;-64
2021/04/12 05:21:44;;;;;;;18.75;11.32;;;;;;;2.81;71.29;101091.72;5050655;28;20060;-64
2021/04/12 05:24:37;;;;;;;15.77;10.50;;;;;;;2.85;70.73;101092.84;5046022;28;20645;-64
2021/04/12 05:27:23;;;;;;;17.63;11.38;;;;;;;2.92;71.00;101102.88;5048002;28;20490;-63
2021/04/12 05:30:18;;;;;;;17.02;11.05;;;;;;;2.91;70.32;101113.06;5033425;28;20064;-64
2021/04/12 05:32:55;;;;;;;18.15;11.60;;;;;;;2.90;70.20;101107.78;5032503;28;20053;-63
2021/04/12 05:35:55;;;;;;;17.52;10.88;;;;;;;2.89;70.46;101117.97;5046395;28;20059;-63
2021/04/12 05:39:06;;;;;;;16.65;11.80;;;;;;;2.87;70.21;101114.63;5050761;28;20057;-63
2021/04/12 05:41:49;;;;;;;18.65;11.98;;;;;;;2.95;70.54;101113.41;5023017;28;20474;-64
2021/04/12 05:44:40;;;;;;;18.40;12.27;;;;;;;2.99;70.58;101126.41;5037815;28;20049;-64
2021/04/12 05:47:31;;;;;;;16.52;12.10;;;;;;;3.07;70.65;101127.94;5051028;28;20455;-64
2021/04/12 05:50:29;;;;;;;16.83;11.55;;;;;;;3.22;70.46;101130.13;5032538;28;20513;-64
2021/04/12 05:53:26;;;;;;;16.05;10.70;;;;;;;3.38;70.26;101128.44;5032288;28;20509;-64
2021/04/12 05:56:31;;;;;;;15.63;10.30;;;;;;;3.49;70.76;101138.56;5026836;28;20482;-64
2021/04/12 05:59:39;;;;;;;14.00;9.68;;;;;;;3.65;70.40;101134.09;5032291;28;20060;-64
2021/04/12 06:02:34;;;;;;;15.25;9.65;;;;;;;3.80;70.32;101136.25;5037209;28;20049;-64
2021/04/12 06:05:10;;;;;;;12.10;8.27;;;;;;;3.95;69.37;101144.75;5035734;28;20058;-64
2021/04/12 06:08:09;;;;;;;12.85;8.48;;;;;;;4.20;68.52;101148.94;5035051;28;20057;-64
2021/04/12 06:10:55;;;;;;;10.85;7.85;;;;;;;4.42;68.22;101144.28;5040273;28;20536;-64
2021/04/12 06:14:06;;;;;;;15.32;7.43;;;;;;;4.75;67.33;101152.69;5052332;28;20053;-64
2021/04/12 06:16:56;;;;;;;10.55;7.32;;;;;;;4.95;66.07;101152.88;5051242;28;20045;-64
2021/04/12 06:20:07;;;;;;;9.55;7.25;;;;;;;5.07;65.76;101155.50;5051678;28;20072;-65
2021/04/12 06:22:57;;;;;;;10.63;7.85;;;;;;;5.33;65.55;101161.25;5052494;28;20061;-65
2021/04/12 06:25:43;;;;;;;13.63;8.10;;;;;;;5.45;64.16;101164.69;5038637;28;20066;-65
2021/04/12 06:28:43;;;;;;;10.52;7.43;;;;;;;5.56;63.99;101174.72;5045203;28;20053;-65
2021/04/12 06:31:40;;;;;;;14.52;7.95;;;;;;;5.76;63.46;101168.53;5048161;28;20064;-65
2021/04/12 06:34:32;;;;;;;13.30;8.05;;;;;;;6.06;62.50;101162.38;5054465;28;20058;-65
2021/04/12 06:37:14;;;;;;;11.65;8.02;;;;;;;6.24;60.90;101166.66;5055802;28;20056;-65
2021/04/12 06:40:01;;;;;;;12.90;7.55;;;;;;;6.26;60.74;101171.94;5048354;28;20053;-64
2021/04/12 06:43:19;;;;;;;13.48;8.57;;;;;;;6.22;60.31;101176.34;5035581;28;20058;-64
2021/04/12 06:46:15;;;;;;;13.57;8.02;;;;;;;6.22;60.96;101174.38;5017627;28;20057;-64
2021/04/12 06:49:37;;;;;;;12.88;6.97;;;;;;;6.41;59.80;101183.06;5045907;28;20044;-64
2021/04/12 06:52:48;;;;;;;11.60;7.00;;;;;;;6.44;59.20;101179.75;5052642;28;20061;-64
2021/04/12 06:55:18;;;;;;;14.35;7.88;;;;;;;6.37;60.34;101187.47;5029557;28;20056;-64
2021/04/12 06:58:29;;;;;;;11.77;7.38;;;;;;;6.41;60.66;101185.00;5045937;28;20049;-64
2021/04/12 07:01:31;;;;;;;14.52;7.80;;;;;;;6.50;59.69;101189.75;5007112;28;20068;-64
2021/04/12 07:04:29;;;;;;;12.85;7.15;;;;;;;6.53;59.97;101188.38;5035220;28;20068;-64
2021/04/12 07:07:42;;;;;;;12.57;7.40;;;;;;;6.60;59.49;101194.50;5048639;28;20068;-65
2021/04/12 07:10:30;;;;;;;15.07;8.23;;;;;;;6.57;60.28;101205.28;5054264;28;20486;-64
2021/04/12 07:13:15;;;;;;;14.73;7.40;;;;;;;6.61;59.93;101203.63;5045790;28;20085;-66
2021/04/12 07:16:34;;;;;;;14.88;7.40;;;;;;;6.78;60.18;101211.72;5047737;28;20049;-63
2021/04/12 07:19:45;;;;;;;12.73;7.78;;;;;;;7.16;58.63;101210.50;5051592;28;20506;-63
2021/04/12 07:22:41;;;;;;;13.18;7.25;;;;;;;7.70;58.20;101204.44;5053636;28;20049;-63
2021/04/12 07:25:51;;;;;;;10.30;6.68;;;;;;;8.24;56.15;101205.78;5028504;28;20056;-63
2021/04/12 07:28:54;;;;;;;13.57;7.00;;;;;;;8.53;54.96;101210.75;5041590;28;20703;-63
2021/04/12 07:32:14;;;;;;;11.63;6.50;;;;;;;8.65;54.82;101213.19;5048943;28;20381;-63
2021/04/12 07:35:23;;;;;;;11.57;6.03;;;;;;;8.72;53.34;101222.88;5034267;28;20053;-63
2021/04/12 07:38:19;;;;;;;11.48;5.80;;;;;;;8.81;52.81;101222.28;5051759;28;20057;-63
2021/04/12 07:41:18;;;;;;;14.20;6.35;;;;;;;8.92;53.36;101216.44;5039289;28;20049;-64
2021/04/12 07:44:26;;;;;;;9.90;6.53;;;;;;;8.98;53.35;101214.44;5051493;28;20056;-63
2021/04/12 07:47:28;;;;;;;10.43;5.82;;;;;;;9.07;52.05;101217.44;5054025;28;20049;-63
2021/04/12 07:50:33;;;;;;;9.40;6.10;;;;;;;9.30;52.64;101227.03;5050633;28;20064;-63
2021/04/12 07:54:02;;;;;;;11.93;6.38;;;;;;;9.48;51.67;101222.75;5064375;28;20064;-63
2021/04/12 07:57:14;;;;;;;15.47;6.40;;;;;;;9.62;51.36;101234.91;5059187;28;20051;-62
2021/04/12 08:00:27;;;;;;;13.05;5.75;;;;;;;9.55;50.84;101238.03;5053748;28;20059;-63
2021/04/12 08:03:32;;;;;;;9.82;5.78;;;;;;;9.13;52.47;101227.41;5029673;28;20056;-63
2021/04/12 08:06:32;;;;;;;10.93;5.55;;;;;;;9.10;52.23;101236.34;5054121;28;20045;-63
2021/04/12 08:09:30;;;;;;;10.82;5.78;;;;;;;9.25;51.74;101243.75;5053751;28;20061;-63
2021/04/12 08:12:33;;;;;;;10.77;5.90;;;;;;;9.23;51.35;101246.00;5051668;28;20053;-63
2021/04/12 08:15:37;;;;;;;11.05;5.47;;;;;;;9.21;50.75;101251.84;5034912;28;20068;-63
2021/04/12 08:18:29;;;;;;;10.77;5.80;;;;;;;9.08;51.68;101247.72;5043261;28;20057;-63
2021/04/12 08:21:44;;;;;;;8.85;5.30;;;;;;;9.13;51.42;101252.44;5052699;28;20482;-63
2021/04/12 08:24:39;;;;;;;10.30;5.47;;;;;;;9.20;52.80;101255.75;5041907;28;20164;-63
2021/04/12 08:27:55;;;;;;;9.90;5.25;;;;;;;9.39;51.75;101255.91;5044312;28;20053;-63
2021/04/12 08:31:23;;;;;;;7.57;5.38;;;;;;;9.65;50.58;101262.13;5052911;28;20057;-63
2021/04/12 08:34:22;;;;;;;10.65;5.90;;;;;;;9.83;49.89;101268.16;5046140;28;20060;-62
2021/04/12 08:37:07;;;;;;;9.85;5.40;;;;;;;9.88;48.94;101265.31;5054421;28;20064;-63
2021/04/12 08:40:12;;;;;;;8.25;5.05;;;;;;;9.88;49.63;101271.69;5052021;28;20060;-63
2021/04/12 08:43:03;;;;;;;11.45;4.88;;;;;;;10.09;49.49;101275.16;5051062;28;20524;-62
2021/04/12 08:46:02;;;;;;;7.88;5.22;;;;;;;10.19;48.64;101268.66;5052118;28;20457;-63
2021/04/12 08:49:09;;;;;;;10.47;5.13;;;;;;;10.63;48.11;101273.28;5051005;28;20106;-63
2021/04/12 08:52:19;;;;;;;11.57;5.57;;;;;;;11.32;46.75;101262.69;5030888;28;20491;-63
2021/04/12 08:55:13;;;;;;;7.35;4.72;;;;;;;11.76;44.98;101261.47;5015409;28;20498;-62
2021/04/12 08:58:13;;;;;;;9.05;4.95;;;;;;;12.63;44.13;101269.50;5051714;28;20053;-63
2021/04/12 09:01:20;;;;;;;5.32;4.22;;;;;;;16.73;36.32;101255.47;5020263;28;20049;-63
2021/04/12 09:04:23;;;;;;;6.10;3.70;;;;;;;17.54;32.79;101250.72;5050586;28;20056;-65
2021/04/12 09:07:25;;;;;;;8.52;4.03;;;;;;;18.20;29.84;101269.75;5038418;28;20059;-64
2021/04/12 09:10:19;;;;;;;7.38;3.97;;;;;;;18.00;30.15;101260.97;5042828;28;20064;-64
2021/04/12 09:13:01;;;;;;;8.15;3.65;;;;;;;18.17;30.97;101262.81;5068215;28;20057;-63
2021/04/12 09:15:46;;;;;;;5.10;3.47;;;;;;;20.23;28.30;101257.78;5048952;28;20049;-63
2021/04/12 09:18:51;;;;;;;4.82;2.83;;;;;;;18.99;27.00;101264.88;5051430;28;20056;-63
2021/04/12 09:21:50;;;;;;;4.93;3.28;;;;;;;20.61;26.79;101250.75;5055841;28;20402;-64
2021/04/12 09:24:42;;;;;;;4.88;2.60;;;;;;;19.91;26.81;101261.69;5040113;28;20052;-65
2021/04/12 09:27:51;;;;;;;4.15;2.50;;;;;;;18.90;27.38;101264.19;5057773;28;20049;-65
2021/04/12 09:30:47;;;;;;;5.53;3.13;;;;;;;17.83;29.06;101266.78;5049388;28;21466;-64
2021/04/12 09:33:37;;;;;;;5.95;3.35;;;;;;;17.31;30.28;101262.31;5046710;28;20052;-64
2021/04/12 09:36:33;;;;;;;6.85;3.90;;;;;;;16.79;31.53;101265.34;5045813;28;20049;-64
2021/04/12 09:39:41;;;;;;;6.88;4.60;;;;;;;15.59;32.24;101283.69;5046626;28;20046;-64
2021/04/12 09:42:47;;;;;;;3.20;2.30;;;;;;;14.80;33.02;101273.41;5011024;28;20061;-64
2021/04/12 09:45:48;;;;;;;5.03;2.92;;;;;;;14.70;33.82;101276.50;5006956;28;20077;-63
2021/04/12 09:49:07;;;;;;;5.55;3.10;;;;;;;16.42;31.91;101263.00;5048788;28;20509;-63
2021/04/12 09:51:50;;;;;;;4.13;2.63;;;;;;;16.15;31.64;101275.47;5006335;28;20073;-64
2021/04/12 09:54:44;;;;;;;4.13;3.00;;;;;;;15.78;31.49;101280.59;5032403;28;20064;-64
2021/04/12 09:57:50;;;;;;;3.75;2.60;;;;;;;15.28;32.15;101280.19;5051080;28;20475;-63
2021/04/12 10:00:39;;;;;;;6.10;3.15;;;;;;;16.74;29.96;101277.63;5038824;28;20450;-63
2021/04/12 10:03:24;;;;;;;3.67;2.80;;;;;;;21.58;22.98;101258.78;5053488;28;20413;-64
2021/04/12 10:06:26;;;;;;;3.80;2.67;;;;;;;24.96;17.90;101250.66;5055937;28;20059;-64
2021/04/12 10:09:16;;;;;;;3.40;2.20;;;;;;;27.65;16.02;101250.66;5036077;28;20051;-65
2021/04/12 10:11:49;;;;;;;2.83;2.08;;;;;;;29.26;13.38;101243.16;5048075;28;20052;-65
2021/04/12 10:14:19;;;;;;;3.55;2.10;;;;;;;31.26;11.90;101235.88;5067606;28;20501;-65
2021/04/12 10:16:59;;;;;;;2.65;1.83;;;;;;;31.46;11.98;101245.41;5057406;28;20778;-65
2021/04/12 10:19:36;;;;;;;2.90;2.13;;;;;;;33.43;10.22;101234.28;5054086;28;20049;-65
2021/04/12 10:22:09;;;;;;;2.97;1.35;;;;;;;33.51;9.91;101247.22;5055029;28;20057;-65
2021/04/12 10:24:54;;;;;;;2.97;2.10;;;;;;;34.50;10.00;101230.28;5050970;28;20509;-65
2021/04/12 10:27:30;;;;;;;3.25;1.33;;;;;;;31.62;10.53;101235.22;5044358;28;20067;-65
2021/04/12 10:30:06;;;;;;;2.85;1.10;;;;;;;28.78;11.59;101243.97;5054734;28;20056;-65
2021/04/12 10:32:43;;;;;;;2.70;1.52;;;;;;;29.60;11.75;101243.19;5056353;28;20056;-65
2021/04/12 10:35:18;;;;;;;2.72;1.70;;;;;;;28.05;13.28;101237.03;5054416;28;20049;-64
2021/04/12 10:37:58;;;;;;;3.08;1.90;;;;;;;26.65;14.30;101246.66;5053414;28;20072;-64
2021/04/12 10:40:31;;;;;;;2.00;1.05;;;;;;;26.45;13.35;101246.16;5052606;28;20405;-64
2021/04/12 10:43:06;;;;;;;3.03;1.10;;;;;;;24.09;15.01;101251.00;5068974;28;20049;-64
2021/04/12 10:45:42;;;;;;;2.13;1.15;;;;;;;22.53;16.82;101251.81;5051428;28;20060;-64
2021/04/12 10:48:17;;;;;;;2.67;1.40;;;;;;;21.15;19.19;101252.09;5050038;28;20073;-64
2021/04/12 10:51:01;;;;;;;4.28;2.10;;;;;;;20.03;20.32;101259.66;5050309;28;20052;-64
2021/04/12 10:53:42;;;;;;;2.60;1.67;;;;;;;18.62;24.00;101276.06;5058717;28;20048;-63
2021/04/12 10:56:16;;;;;;;3.47;1.92;;;;;;;17.56;26.00;101283.03;5052960;28;20068;-64
2021/04/12 10:59:24;;;;;;;5.03;1.75;;;;;;;16.64;27.92;101280.81;5062126;28;20394;-64
2021/04/12 11:01:57;;;;;;;2.90;1.65;;;;;;;15.66;29.25;101288.81;5052392;28;20060;-63
2021/04/12 11:04:55;;;;;;;3.22;1.50;;;;;;;15.05;29.87;101291.50;5054049;28;20053;-64
2021/04/12 11:07:30;;;;;;;3.08;1.75;;;;;;;15.08;30.07;101298.47;5056803;28;20056;-64
2021/04/12 11:10:02;;;;;;;2.55;2.22;;;;;;;17.10;25.93;101295.22;5074248;28;20060;-64
2021/04/12 11:12:47;;;;;;;2.90;2.50;;;;;;;19.63;26.19;101277.41;5064746;28;20056;-64
2021/04/12 11:15:23;;;;;;;3.55;2.50;;;;;;;23.43;20.16;101274.03;5039603;28;20065;-64
2021/04/12 11:17:59;;;;;;;3.80;2.13;;;;;;;25.52;18.73;101274.31;5053755;28;20059;-64
2021/04/12 11:20:38;;;;;;;3.00;1.90;;;;;;;25.04;17.16;101278.00;5052179;28;20049;-64
2021/04/12 11:23:15;;;;;;;2.72;1.88;;;;;;;22.87;19.29;101284.09;5052315;28;20056;-64
2021/04/12 11:25:50;;;;;;;3.38;2.15;;;;;;;25.11;16.52;101275.25;5049325;28;20072;-64
2021/04/12 11:28:45;;;;;;;2.40;1.70;;;;;;;26.21;15.71;101284.88;5047516;28;20406;-64
2021/04/12 11:31:34;;;;;;;2.40;1.00;;;;;;;24.59;16.19;101294.28;5048094;28;20080;-64
2021/04/12 11:34:12;;;;;;;1.00;0.60;;;;;;;22.06;17.56;101301.16;5050606;28;20060;-64
2021/04/12 11:36:56;;;;;;;1.13;0.60;;;;;;;20.34;18.73;101305.34;5052770;28;20061;-64
2021/04/12 11:39:27;;;;;;;1.70;0.65;;;;;;;19.10;20.75;101303.94;5047138;28;20552;-64
2021/04/12 11:41:58;;;;;;;2.05;0.90;;;;;;;19.05;20.79;101302.19;5053567;28;20068;-64
2021/04/12 11:44:32;;;;;;;2.28;1.55;;;;;;;21.48;18.53;101294.22;5054361;28;20064;-64
2021/04/12 11:47:21;;;;;;;2.83;1.92;;;;;;;23.68;16.97;101290.66;5051127;28;20055;-64
2021/04/12 11:50:17;;;;;;;2.78;1.15;;;;;;;22.52;15.67;101289.13;5052223;28;20044;-64
2021/04/12 11:52:59;;;;;;;4.63;1.30;;;;;;;20.68;17.59;101286.91;5037600;28;20052;-64
2021/04/12 11:55:31;;;;;;;1.63;1.02;;;;;;;20.44;17.99;101299.19;5061062;28;20045;-64
2021/04/12 11:58:03;;;;;;;2.45;1.20;;;;;;;21.73;16.98;101295.97;5053929;28;20044;-64
2021/04/12 12:00:36;;;;;;;2.03;1.40;;;;;;;24.81;15.62;101286.78;5050595;28;20056;-64
2021/04/12 12:03:15;;;;;;;2.70;1.45;;;;;;;27.96;13.58;101286.16;5052040;28;20175;-64
2021/04/12 12:06:13;;;;;;;1.88;1.20;;;;;;;28.80;11.40;101293.13;5055947;28;20052;-64
2021/04/12 12:08:55;;;;;;;3.22;1.60;;;;;;;29.94;11.54;101303.56;5059460;28;20686;-64
2021/04/12 12:11:33;;;;;;;4.05;1.67;;;;;;;30.17;10.79;101299.16;5051888;28;20061;-64
2021/04/12 12:14:06;;;;;;;2.88;1.67;;;;;;;27.94;12.88;101323.81;5058202;28;20446;-65
2021/04/12 12:16:36;;;;;;;3.53;2.20;;;;;;;25.14;16.93;101338.38;5050442;28;20056;-65
2021/04/12 12:19:13;;;;;;;3.25;2.25;;;;;;;23.81;19.04;101337.63;5050280;28;20048;-64
2021/04/12 12:21:48;;;;;;;2.42;1.52;;;;;;;22.59;19.17;101349.69;5035585;28;20374;-64
2021/04/12 12:24:23;;;;;;;3.17;1.35;;;;;;;21.37;21.37;101349.78;5050917;28;20052;-64
2021/04/12 12:27:01;;;;;;;3.45;1.77;;;;;;;21.38;21.27;101361.97;5048161;28;20553;-64
2021/04/12 12:29:32;;;;;;;2.92;2.10;;;;;;;24.28;18.89;101349.66;5059337;28;20053;-64
2021/04/12 12:32:11;;;;;;;1.92;1.52;;;;;;;24.34;18.70;101359.47;5050132;28;20053;-64
2021/04/12 12:34:47;;;;;;;;;;;;;;;23.34;18.77;101352.31;5042413;28;20056;-64
2021/04/12 12:37:27;;;;;;;2.45;2.03;;;;;;;24.88;17.72;101351.56;5053286;28;19927;-64
2021/04/12 12:39:57;;;;;;;3.55;2.33;;;;;;;26.48;16.84;101347.41;5054614;28;20056;-65
2021/04/12 12:42:28;;;;;;;1.80;1.40;;;;;;;25.58;17.68;101346.09;5055668;28;20056;-65
2021/04/12 12:45:04;;;;;;;3.65;1.90;;;;;;;25.70;17.16;101355.16;5059855;28;20057;-65
2021/04/12 12:47:34;;;;;;;2.45;1.85;;;;;;;24.59;17.70;101339.88;5053590;28;20048;-65
2021/04/12 12:50:05;;;;;;;3.28;1.70;;;;;;;24.20;17.95;101342.22;5047455;28;20046;-65
2021/04/12 12:52:35;;;;;;;2.20;1.67;;;;;;;23.85;17.63;101337.66;5047026;28;20370;-65
2021/04/12 12:55:06;;;;;;;2.88;2.08;;;;;;;23.74;18.25;101337.47;5049544;28;20049;-65
2021/04/12 12:57:36;;;;;;;2.38;2.00;;;;;;;23.51;18.49;101338.34;5056128;28;20048;-65
2021/04/12 13:00:15;;;;;;;2.50;2.30;;;;;;;24.01;17.83;101351.72;5054344;28;20049;-65
2021/04/12 13:02:44;;;;;;;3.58;2.65;;;;;;;24.09;18.58;101348.59;5056767;28;20040;-65
2021/04/12 13:05:17;;;;;;;4.07;2.38;;;;;;;24.07;18.10;101348.16;5052640;28;20061;-65
2021/04/12 13:07:47;;;;;;;3.85;2.20;;;;;;;23.70;18.61;101345.97;5053086;28;20671;-65
2021/04/12 13:10:19;;;;;;;3.85;1.80;;;;;;;23.75;19.82;101350.53;5050508;28;20071;-65
2021/04/12 13:12:52;;;;;;;3.85;2.50;;;;;;;23.40;19.58;101345.91;5050715;28;20052;-65